sensor_id;sensor_type;location;lat;lon;timestamp;P1;durP1;ratioP1;P2;durP2;ratioP2
4517;SDS011;2271;49.464;11.070;2023-08-31T00:01:49;4.57;;;1.70;;
4517;SDS011;2271;49.464;11.070;2023-08-31T00:04:15;2.38;;;1.90;;
4517;SDS011;2271;49.464;11.070;2023-08-31T00:06:41;4.75;;;2.00;;
4517;SDS011;2271;49.464;11.070;2023-08-31T00:09:07;2.05;;;1.77;;
4517;SDS011;2271;49.464;11.070;2023-08-31T00:11:35;3.25;;;1.85;;
4517;SDS011;2271;49.464;11.070;2023-08-31T00:14:00;4.05;;;2.05;;
4517;SDS011;2271;49.464;11.070;2023-08-31T00:16:26;1.90;;;1.70;;
4517;SDS011;2271;49.464;11.070;2023-08-31T00:18:52;3.20;;;1.80;;
4517;SDS011;2271;49.464;11.070;2023-08-31T00:21:19;2.15;;;1.63;;
4517;SDS011;2271;49.464;11.070;2023-08-31T00:23:46;2.00;;;1.90;;
4517;SDS011;2271;49.464;11.070;2023-08-31T00:26:11;1.80;;;1.70;;
4517;SDS011;2271;49.464;11.070;2023-08-31T00:28:37;2.42;;;1.80;;
4517;SDS011;2271;49.464;11.070;2023-08-31T00:31:04;6.82;;;2.03;;
4517;SDS011;2271;49.464;11.070;2023-08-31T00:33:29;1.88;;;1.50;;
4517;SDS011;2271;49.464;11.070;2023-08-31T00:35:56;2.20;;;2.00;;
4517;SDS011;2271;49.464;11.070;2023-08-31T00:38:26;3.75;;;1.88;;
4517;SDS011;2271;49.464;11.070;2023-08-31T00:40:52;1.42;;;1.33;;
4517;SDS011;2271;49.464;11.070;2023-08-31T00:43:19;3.63;;;2.03;;
4517;SDS011;2271;49.464;11.070;2023-08-31T00:45:45;4.43;;;1.85;;
4517;SDS011;2271;49.464;11.070;2023-08-31T00:48:14;3.67;;;2.03;;
4517;SDS011;2271;49.464;11.070;2023-08-31T00:50:46;3.75;;;2.25;;
4517;SDS011;2271;49.464;11.070;2023-08-31T00:53:13;2.40;;;2.20;;
4517;SDS011;2271;49.464;11.070;2023-08-31T00:55:40;1.80;;;1.70;;
4517;SDS011;2271;49.464;11.070;2023-08-31T00:58:07;3.03;;;2.15;;
4517;SDS011;2271;49.464;11.070;2023-08-31T01:09:34;2.17;;;1.58;;
4517;SDS011;2271;49.464;11.070;2023-08-31T01:12:12;3.70;;;1.73;;
4517;SDS011;2271;49.464;11.070;2023-08-31T01:15:04;2.55;;;1.60;;
4517;SDS011;2271;49.464;11.070;2023-08-31T01:17:33;2.08;;;1.60;;
4517;SDS011;2271;49.464;11.070;2023-08-31T01:20:03;1.90;;;1.80;;
4517;SDS011;2271;49.464;11.070;2023-08-31T01:25:16;1.77;;;1.67;;
4517;SDS011;2271;49.464;11.070;2023-08-31T01:27:43;1.65;;;1.25;;
4517;SDS011;2271;49.464;11.070;2023-08-31T01:30:09;1.58;;;1.48;;
4517;SDS011;2271;49.464;11.070;2023-08-31T01:32:34;2.22;;;2.03;;
4517;SDS011;2271;49.464;11.070;2023-08-31T01:35:02;1.88;;;1.73;;
4517;SDS011;2271;49.464;11.070;2023-08-31T01:39:56;3.40;;;1.80;;
4517;SDS011;2271;49.464;11.070;2023-08-31T01:42:28;1.73;;;1.63;;
4517;SDS011;2271;49.464;11.070;2023-08-31T01:44:55;3.03;;;1.85;;
4517;SDS011;2271;49.464;11.070;2023-08-31T01:47:22;2.40;;;1.98;;
4517;SDS011;2271;49.464;11.070;2023-08-31T01:49:49;1.95;;;1.70;;
4517;SDS011;2271;49.464;11.070;2023-08-31T01:52:16;2.13;;;1.92;;
4517;SDS011;2271;49.464;11.070;2023-08-31T01:54:41;1.80;;;1.70;;
4517;SDS011;2271;49.464;11.070;2023-08-31T01:57:07;5.05;;;1.65;;
4517;SDS011;2271;49.464;11.070;2023-08-31T01:59:33;1.67;;;1.58;;
4517;SDS011;2271;49.464;11.070;2023-08-31T02:02:00;4.80;;;1.77;;
4517;SDS011;2271;49.464;11.070;2023-08-31T02:04:26;2.92;;;1.77;;
4517;SDS011;2271;49.464;11.070;2023-08-31T02:06:51;2.72;;;1.65;;
4517;SDS011;2271;49.464;11.070;2023-08-31T02:09:17;2.28;;;1.55;;
4517;SDS011;2271;49.464;11.070;2023-08-31T02:11:42;1.67;;;1.58;;
4517;SDS011;2271;49.464;11.070;2023-08-31T02:14:08;2.05;;;1.88;;
4517;SDS011;2271;49.464;11.070;2023-08-31T02:16:34;2.35;;;1.85;;
4517;SDS011;2271;49.464;11.070;2023-08-31T02:18:59;1.63;;;1.52;;
4517;SDS011;2271;49.464;11.070;2023-08-31T02:21:25;1.60;;;1.50;;
4517;SDS011;2271;49.464;11.070;2023-08-31T02:23:51;2.78;;;1.77;;
4517;SDS011;2271;49.464;11.070;2023-08-31T02:26:16;1.92;;;1.65;;
4517;SDS011;2271;49.464;11.070;2023-08-31T02:28:42;2.55;;;1.98;;
4517;SDS011;2271;49.464;11.070;2023-08-31T02:31:09;1.48;;;1.38;;
4517;SDS011;2271;49.464;11.070;2023-08-31T02:33:36;1.95;;;1.60;;
4517;SDS011;2271;49.464;11.070;2023-08-31T02:36:01;1.73;;;1.40;;
4517;SDS011;2271;49.464;11.070;2023-08-31T02:38:27;2.78;;;1.30;;
4517;SDS011;2271;49.464;11.070;2023-08-31T02:40:53;2.20;;;1.40;;
4517;SDS011;2271;49.464;11.070;2023-08-31T02:43:19;2.97;;;2.05;;
4517;SDS011;2271;49.464;11.070;2023-08-31T02:45:45;2.40;;;1.80;;
4517;SDS011;2271;49.464;11.070;2023-08-31T02:48:10;2.90;;;1.88;;
4517;SDS011;2271;49.464;11.070;2023-08-31T02:50:36;1.65;;;1.55;;
4517;SDS011;2271;49.464;11.070;2023-08-31T02:53:02;2.75;;;2.03;;
4517;SDS011;2271;49.464;11.070;2023-08-31T02:55:28;7.97;;;1.80;;
4517;SDS011;2271;49.464;11.070;2023-08-31T02:57:56;1.58;;;1.38;;
4517;SDS011;2271;49.464;11.070;2023-08-31T03:00:22;3.10;;;2.00;;
4517;SDS011;2271;49.464;11.070;2023-08-31T03:02:48;2.78;;;1.60;;
4517;SDS011;2271;49.464;11.070;2023-08-31T03:05:17;2.13;;;1.70;;
4517;SDS011;2271;49.464;11.070;2023-08-31T03:07:43;2.15;;;1.67;;
4517;SDS011;2271;49.464;11.070;2023-08-31T03:10:09;2.58;;;1.67;;
4517;SDS011;2271;49.464;11.070;2023-08-31T03:12:35;1.85;;;1.60;;
4517;SDS011;2271;49.464;11.070;2023-08-31T03:15:01;2.08;;;1.88;;
4517;SDS011;2271;49.464;11.070;2023-08-31T03:17:27;2.47;;;1.73;;
4517;SDS011;2271;49.464;11.070;2023-08-31T03:19:53;2.00;;;1.80;;
4517;SDS011;2271;49.464;11.070;2023-08-31T03:22:25;2.05;;;1.65;;
4517;SDS011;2271;49.464;11.070;2023-08-31T03:24:50;2.20;;;1.90;;
4517;SDS011;2271;49.464;11.070;2023-08-31T03:27:16;1.98;;;1.73;;
4517;SDS011;2271;49.464;11.070;2023-08-31T03:29:42;2.00;;;1.80;;
4517;SDS011;2271;49.464;11.070;2023-08-31T03:32:07;4.00;;;1.92;;
4517;SDS011;2271;49.464;11.070;2023-08-31T03:34:33;2.65;;;1.83;;
4517;SDS011;2271;49.464;11.070;2023-08-31T03:36:59;2.40;;;2.17;;
4517;SDS011;2271;49.464;11.070;2023-08-31T03:39:25;2.80;;;2.08;;
4517;SDS011;2271;49.464;11.070;2023-08-31T03:41:51;2.90;;;1.98;;
4517;SDS011;2271;49.464;11.070;2023-08-31T03:44:16;3.63;;;1.70;;
4517;SDS011;2271;49.464;11.070;2023-08-31T03:46:42;2.65;;;1.27;;
4517;SDS011;2271;49.464;11.070;2023-08-31T03:49:08;1.80;;;1.70;;
4517;SDS011;2271;49.464;11.070;2023-08-31T03:51:34;2.17;;;1.98;;
4517;SDS011;2271;49.464;11.070;2023-08-31T03:54:00;3.05;;;1.55;;
4517;SDS011;2271;49.464;11.070;2023-08-31T03:56:26;3.75;;;1.58;;
4517;SDS011;2271;49.464;11.070;2023-08-31T03:58:52;2.33;;;1.38;;
4517;SDS011;2271;49.464;11.070;2023-08-31T04:01:18;1.88;;;1.55;;
4517;SDS011;2271;49.464;11.070;2023-08-31T04:03:43;1.52;;;1.42;;
4517;SDS011;2271;49.464;11.070;2023-08-31T04:06:09;3.28;;;1.80;;
4517;SDS011;2271;49.464;11.070;2023-08-31T04:08:35;2.60;;;1.95;;
4517;SDS011;2271;49.464;11.070;2023-08-31T04:11:01;4.70;;;1.67;;
4517;SDS011;2271;49.464;11.070;2023-08-31T04:13:27;7.30;;;1.58;;
4517;SDS011;2271;49.464;11.070;2023-08-31T04:15:53;2.15;;;1.50;;
4517;SDS011;2271;49.464;11.070;2023-08-31T04:18:19;4.10;;;1.67;;
4517;SDS011;2271;49.464;11.070;2023-08-31T04:20:48;1.67;;;1.42;;
4517;SDS011;2271;49.464;11.070;2023-08-31T04:23:16;2.17;;;1.98;;
4517;SDS011;2271;49.464;11.070;2023-08-31T04:25:42;2.42;;;2.03;;
4517;SDS011;2271;49.464;11.070;2023-08-31T04:28:08;6.97;;;2.40;;
4517;SDS011;2271;49.464;11.070;2023-08-31T04:30:33;3.17;;;2.88;;
4517;SDS011;2271;49.464;11.070;2023-08-31T04:32:59;2.75;;;2.40;;
4517;SDS011;2271;49.464;11.070;2023-08-31T04:35:25;5.53;;;2.30;;
4517;SDS011;2271;49.464;11.070;2023-08-31T04:37:50;3.67;;;2.80;;
4517;SDS011;2271;49.464;11.070;2023-08-31T04:40:16;5.70;;;2.38;;
4517;SDS011;2271;49.464;11.070;2023-08-31T04:42:42;6.65;;;2.53;;
4517;SDS011;2271;49.464;11.070;2023-08-31T04:45:08;3.97;;;2.60;;
4517;SDS011;2271;49.464;11.070;2023-08-31T04:47:35;3.50;;;3.00;;
4517;SDS011;2271;49.464;11.070;2023-08-31T04:50:01;7.55;;;3.47;;
4517;SDS011;2271;49.464;11.070;2023-08-31T04:52:26;3.95;;;2.72;;
4517;SDS011;2271;49.464;11.070;2023-08-31T04:54:52;5.60;;;3.22;;
4517;SDS011;2271;49.464;11.070;2023-08-31T04:57:17;3.30;;;2.97;;
4517;SDS011;2271;49.464;11.070;2023-08-31T04:59:44;4.75;;;2.85;;
4517;SDS011;2271;49.464;11.070;2023-08-31T05:02:10;7.65;;;3.35;;
4517;SDS011;2271;49.464;11.070;2023-08-31T05:04:36;5.72;;;3.53;;
4517;SDS011;2271;49.464;11.070;2023-08-31T05:07:01;9.20;;;3.10;;
4517;SDS011;2271;49.464;11.070;2023-08-31T05:09:28;5.03;;;3.50;;
4517;SDS011;2271;49.464;11.070;2023-08-31T05:11:57;6.30;;;3.45;;
4517;SDS011;2271;49.464;11.070;2023-08-31T05:14:23;3.70;;;3.30;;
4517;SDS011;2271;49.464;11.070;2023-08-31T05:16:50;4.65;;;3.50;;
4517;SDS011;2271;49.464;11.070;2023-08-31T05:19:15;5.38;;;3.72;;
4517;SDS011;2271;49.464;11.070;2023-08-31T05:21:41;4.28;;;3.50;;
4517;SDS011;2271;49.464;11.070;2023-08-31T05:24:07;4.63;;;3.40;;
4517;SDS011;2271;49.464;11.070;2023-08-31T05:26:32;4.57;;;3.78;;
4517;SDS011;2271;49.464;11.070;2023-08-31T05:28:58;9.25;;;4.25;;
4517;SDS011;2271;49.464;11.070;2023-08-31T05:31:24;12.45;;;4.20;;
4517;SDS011;2271;49.464;11.070;2023-08-31T05:33:49;4.38;;;3.90;;
4517;SDS011;2271;49.464;11.070;2023-08-31T05:36:15;9.43;;;4.03;;
4517;SDS011;2271;49.464;11.070;2023-08-31T05:38:41;8.85;;;4.45;;
4517;SDS011;2271;49.464;11.070;2023-08-31T05:41:07;4.10;;;3.63;;
4517;SDS011;2271;49.464;11.070;2023-08-31T05:43:35;6.13;;;3.95;;
4517;SDS011;2271;49.464;11.070;2023-08-31T05:46:01;6.82;;;3.80;;
4517;SDS011;2271;49.464;11.070;2023-08-31T05:48:27;7.20;;;3.85;;
4517;SDS011;2271;49.464;11.070;2023-08-31T05:50:53;8.82;;;4.10;;
4517;SDS011;2271;49.464;11.070;2023-08-31T05:53:20;12.20;;;3.78;;
4517;SDS011;2271;49.464;11.070;2023-08-31T05:55:46;4.70;;;3.10;;
4517;SDS011;2271;49.464;11.070;2023-08-31T05:58:12;7.93;;;3.83;;
4517;SDS011;2271;49.464;11.070;2023-08-31T06:00:37;9.10;;;3.75;;
4517;SDS011;2271;49.464;11.070;2023-08-31T06:03:03;4.97;;;3.80;;
4517;SDS011;2271;49.464;11.070;2023-08-31T06:05:30;5.35;;;4.13;;
4517;SDS011;2271;49.464;11.070;2023-08-31T06:07:57;6.53;;;4.10;;
4517;SDS011;2271;49.464;11.070;2023-08-31T06:10:23;8.90;;;3.83;;
4517;SDS011;2271;49.464;11.070;2023-08-31T06:12:49;5.85;;;4.65;;
4517;SDS011;2271;49.464;11.070;2023-08-31T06:15:16;5.18;;;3.85;;
4517;SDS011;2271;49.464;11.070;2023-08-31T06:17:42;5.38;;;3.88;;
4517;SDS011;2271;49.464;11.070;2023-08-31T06:20:08;9.05;;;3.97;;
4517;SDS011;2271;49.464;11.070;2023-08-31T06:22:34;7.10;;;3.70;;
4517;SDS011;2271;49.464;11.070;2023-08-31T06:25:00;4.00;;;3.60;;
4517;SDS011;2271;49.464;11.070;2023-08-31T06:27:28;4.05;;;3.53;;
4517;SDS011;2271;49.464;11.070;2023-08-31T06:29:53;4.72;;;3.95;;
4517;SDS011;2271;49.464;11.070;2023-08-31T06:32:19;3.78;;;3.38;;
4517;SDS011;2271;49.464;11.070;2023-08-31T06:34:45;5.07;;;3.38;;
4517;SDS011;2271;49.464;11.070;2023-08-31T06:37:11;6.95;;;3.20;;
4517;SDS011;2271;49.464;11.070;2023-08-31T06:39:37;4.82;;;3.38;;
4517;SDS011;2271;49.464;11.070;2023-08-31T06:42:04;5.30;;;3.30;;
4517;SDS011;2271;49.464;11.070;2023-08-31T06:44:30;9.77;;;4.20;;
4517;SDS011;2271;49.464;11.070;2023-08-31T06:46:56;6.78;;;3.15;;
4517;SDS011;2271;49.464;11.070;2023-08-31T06:49:24;4.68;;;3.05;;
4517;SDS011;2271;49.464;11.070;2023-08-31T06:51:50;10.13;;;3.83;;
4517;SDS011;2271;49.464;11.070;2023-08-31T06:54:16;3.92;;;3.47;;
4517;SDS011;2271;49.464;11.070;2023-08-31T06:56:41;4.93;;;3.15;;
4517;SDS011;2271;49.464;11.070;2023-08-31T06:59:07;4.45;;;3.58;;
4517;SDS011;2271;49.464;11.070;2023-08-31T07:01:33;6.90;;;3.40;;
4517;SDS011;2271;49.464;11.070;2023-08-31T07:03:58;6.40;;;3.20;;
4517;SDS011;2271;49.464;11.070;2023-08-31T07:06:24;3.70;;;3.22;;
4517;SDS011;2271;49.464;11.070;2023-08-31T07:08:50;4.25;;;3.05;;
4517;SDS011;2271;49.464;11.070;2023-08-31T07:11:16;3.97;;;3.50;;
4517;SDS011;2271;49.464;11.070;2023-08-31T07:13:42;3.22;;;2.92;;
4517;SDS011;2271;49.464;11.070;2023-08-31T07:16:08;7.57;;;3.88;;
4517;SDS011;2271;49.464;11.070;2023-08-31T07:18:34;3.67;;;3.20;;
4517;SDS011;2271;49.464;11.070;2023-08-31T07:21:01;5.03;;;3.53;;
4517;SDS011;2271;49.464;11.070;2023-08-31T07:23:27;14.07;;;3.42;;
4517;SDS011;2271;49.464;11.070;2023-08-31T07:25:56;6.20;;;2.47;;
4517;SDS011;2271;49.464;11.070;2023-08-31T07:28:23;3.33;;;2.22;;
4517;SDS011;2271;49.464;11.070;2023-08-31T07:30:48;8.20;;;2.83;;
4517;SDS011;2271;49.464;11.070;2023-08-31T07:33:14;3.97;;;2.42;;
4517;SDS011;2271;49.464;11.070;2023-08-31T07:35:40;6.25;;;2.40;;
4517;SDS011;2271;49.464;11.070;2023-08-31T07:38:05;4.53;;;2.50;;
4517;SDS011;2271;49.464;11.070;2023-08-31T07:40:31;4.68;;;2.22;;
4517;SDS011;2271;49.464;11.070;2023-08-31T07:42:56;5.47;;;2.20;;
4517;SDS011;2271;49.464;11.070;2023-08-31T07:45:22;4.57;;;2.35;;
4517;SDS011;2271;49.464;11.070;2023-08-31T07:47:48;3.60;;;1.70;;
4517;SDS011;2271;49.464;11.070;2023-08-31T07:50:14;8.68;;;1.83;;
4517;SDS011;2271;49.464;11.070;2023-08-31T07:52:39;2.60;;;1.95;;
4517;SDS011;2271;49.464;11.070;2023-08-31T07:55:05;4.35;;;2.75;;
4517;SDS011;2271;49.464;11.070;2023-08-31T07:57:31;1.77;;;1.65;;
4517;SDS011;2271;49.464;11.070;2023-08-31T07:59:57;4.60;;;2.28;;
4517;SDS011;2271;49.464;11.070;2023-08-31T08:02:23;5.57;;;2.85;;
4517;SDS011;2271;49.464;11.070;2023-08-31T08:04:48;5.35;;;2.40;;
4517;SDS011;2271;49.464;11.070;2023-08-31T08:07:14;2.72;;;2.53;;
4517;SDS011;2271;49.464;11.070;2023-08-31T08:09:40;3.72;;;2.00;;
4517;SDS011;2271;49.464;11.070;2023-08-31T08:12:06;2.97;;;1.70;;
4517;SDS011;2271;49.464;11.070;2023-08-31T08:14:32;4.13;;;1.90;;
4517;SDS011;2271;49.464;11.070;2023-08-31T08:16:58;5.10;;;1.67;;
4517;SDS011;2271;49.464;11.070;2023-08-31T08:19:23;2.55;;;1.70;;
4517;SDS011;2271;49.464;11.070;2023-08-31T08:21:50;2.63;;;1.50;;
4517;SDS011;2271;49.464;11.070;2023-08-31T08:24:16;3.42;;;2.15;;
4517;SDS011;2271;49.464;11.070;2023-08-31T08:26:42;7.95;;;2.10;;
4517;SDS011;2271;49.464;11.070;2023-08-31T08:29:07;7.80;;;1.90;;
4517;SDS011;2271;49.464;11.070;2023-08-31T08:31:33;2.33;;;1.60;;
4517;SDS011;2271;49.464;11.070;2023-08-31T08:33:59;2.85;;;1.30;;
4517;SDS011;2271;49.464;11.070;2023-08-31T08:36:25;3.15;;;1.60;;
4517;SDS011;2271;49.464;11.070;2023-08-31T08:38:51;2.05;;;1.48;;
4517;SDS011;2271;49.464;11.070;2023-08-31T08:41:17;5.07;;;1.40;;
4517;SDS011;2271;49.464;11.070;2023-08-31T08:43:48;3.00;;;1.40;;
4517;SDS011;2271;49.464;11.070;2023-08-31T08:46:15;2.53;;;1.60;;
4517;SDS011;2271;49.464;11.070;2023-08-31T08:48:41;5.55;;;1.60;;
4517;SDS011;2271;49.464;11.070;2023-08-31T08:51:07;1.73;;;1.45;;
4517;SDS011;2271;49.464;11.070;2023-08-31T08:53:33;2.38;;;1.52;;
4517;SDS011;2271;49.464;11.070;2023-08-31T08:55:59;2.75;;;1.67;;
4517;SDS011;2271;49.464;11.070;2023-08-31T08:58:25;4.18;;;1.80;;
4517;SDS011;2271;49.464;11.070;2023-08-31T09:00:51;2.15;;;1.70;;
4517;SDS011;2271;49.464;11.070;2023-08-31T09:03:21;2.25;;;1.63;;
4517;SDS011;2271;49.464;11.070;2023-08-31T09:05:48;5.63;;;1.65;;
4517;SDS011;2271;49.464;11.070;2023-08-31T09:08:14;6.07;;;1.70;;
4517;SDS011;2271;49.464;11.070;2023-08-31T09:10:41;1.52;;;1.40;;
4517;SDS011;2271;49.464;11.070;2023-08-31T09:13:11;2.25;;;1.20;;
4517;SDS011;2271;49.464;11.070;2023-08-31T09:18:30;2.80;;;1.67;;
4517;SDS011;2271;49.464;11.070;2023-08-31T09:20:59;2.30;;;1.60;;
4517;SDS011;2271;49.464;11.070;2023-08-31T09:23:25;2.22;;;1.25;;
4517;SDS011;2271;49.464;11.070;2023-08-31T09:25:53;10.57;;;1.75;;
4517;SDS011;2271;49.464;11.070;2023-08-31T09:28:20;4.10;;;1.50;;
4517;SDS011;2271;49.464;11.070;2023-08-31T09:30:48;2.78;;;1.75;;
4517;SDS011;2271;49.464;11.070;2023-08-31T09:33:18;2.10;;;1.02;;
4517;SDS011;2271;49.464;11.070;2023-08-31T09:35:57;2.03;;;1.40;;
4517;SDS011;2271;49.464;11.070;2023-08-31T09:38:29;2.47;;;2.17;;
4517;SDS011;2271;49.464;11.070;2023-08-31T09:41:04;1.67;;;1.13;;
4517;SDS011;2271;49.464;11.070;2023-08-31T09:43:33;2.03;;;1.30;;
4517;SDS011;2271;49.464;11.070;2023-08-31T09:45:59;2.65;;;1.10;;
4517;SDS011;2271;49.464;11.070;2023-08-31T09:48:27;3.80;;;1.20;;
4517;SDS011;2271;49.464;11.070;2023-08-31T09:50:54;2.47;;;1.52;;
4517;SDS011;2271;49.464;11.070;2023-08-31T09:53:21;1.27;;;1.08;;
4517;SDS011;2271;49.464;11.070;2023-08-31T09:55:48;1.27;;;1.00;;
4517;SDS011;2271;49.464;11.070;2023-08-31T09:58:17;2.03;;;1.52;;
4517;SDS011;2271;49.464;11.070;2023-08-31T10:00:45;2.45;;;1.33;;
4517;SDS011;2271;49.464;11.070;2023-08-31T10:03:11;1.75;;;1.00;;
4517;SDS011;2271;49.464;11.070;2023-08-31T10:05:40;1.63;;;1.40;;
4517;SDS011;2271;49.464;11.070;2023-08-31T10:08:10;2.03;;;1.30;;
4517;SDS011;2271;49.464;11.070;2023-08-31T10:10:36;4.13;;;1.52;;
4517;SDS011;2271;49.464;11.070;2023-08-31T10:13:04;2.05;;;1.35;;
4517;SDS011;2271;49.464;11.070;2023-08-31T10:15:34;2.10;;;1.42;;
4517;SDS011;2271;49.464;11.070;2023-08-31T10:18:01;3.97;;;1.50;;
4517;SDS011;2271;49.464;11.070;2023-08-31T10:20:28;3.67;;;1.60;;
4517;SDS011;2271;49.464;11.070;2023-08-31T10:22:59;1.88;;;1.50;;
4517;SDS011;2271;49.464;11.070;2023-08-31T10:28:20;2.03;;;1.65;;
4517;SDS011;2271;49.464;11.070;2023-08-31T10:33:26;1.83;;;1.63;;
4517;SDS011;2271;49.464;11.070;2023-08-31T10:35:55;2.05;;;1.65;;
4517;SDS011;2271;49.464;11.070;2023-08-31T10:41:02;4.53;;;2.13;;
4517;SDS011;2271;49.464;11.070;2023-08-31T10:43:56;3.20;;;1.85;;
4517;SDS011;2271;49.464;11.070;2023-08-31T10:46:33;4.13;;;1.80;;
4517;SDS011;2271;49.464;11.070;2023-08-31T10:51:43;2.45;;;1.70;;
4517;SDS011;2271;49.464;11.070;2023-08-31T10:59:43;4.85;;;2.13;;
4517;SDS011;2271;49.464;11.070;2023-08-31T11:02:29;2.55;;;1.80;;
4517;SDS011;2271;49.464;11.070;2023-08-31T11:07:26;3.85;;;2.00;;
4517;SDS011;2271;49.464;11.070;2023-08-31T11:09:52;2.92;;;1.63;;
4517;SDS011;2271;49.464;11.070;2023-08-31T11:12:32;3.35;;;2.00;;
4517;SDS011;2271;49.464;11.070;2023-08-31T11:14:57;2.92;;;1.70;;
4517;SDS011;2271;49.464;11.070;2023-08-31T11:17:23;4.32;;;1.50;;
4517;SDS011;2271;49.464;11.070;2023-08-31T11:19:49;4.43;;;2.35;;
4517;SDS011;2271;49.464;11.070;2023-08-31T11:22:15;2.92;;;2.00;;
4517;SDS011;2271;49.464;11.070;2023-08-31T11:24:41;5.97;;;1.60;;
4517;SDS011;2271;49.464;11.070;2023-08-31T11:27:07;3.67;;;2.13;;
4517;SDS011;2271;49.464;11.070;2023-08-31T11:29:42;2.72;;;1.60;;
4517;SDS011;2271;49.464;11.070;2023-08-31T11:32:09;9.43;;;1.42;;
4517;SDS011;2271;49.464;11.070;2023-08-31T11:34:34;2.03;;;1.63;;
4517;SDS011;2271;49.464;11.070;2023-08-31T11:37:01;1.70;;;1.60;;
4517;SDS011;2271;49.464;11.070;2023-08-31T11:39:28;3.17;;;2.15;;
4517;SDS011;2271;49.464;11.070;2023-08-31T11:41:54;4.53;;;1.65;;
4517;SDS011;2271;49.464;11.070;2023-08-31T11:44:20;1.90;;;1.70;;
4517;SDS011;2271;49.464;11.070;2023-08-31T11:46:46;2.47;;;1.55;;
4517;SDS011;2271;49.464;11.070;2023-08-31T11:49:15;1.88;;;1.60;;
4517;SDS011;2271;49.464;11.070;2023-08-31T11:51:44;4.28;;;2.45;;
4517;SDS011;2271;49.464;11.070;2023-08-31T11:54:11;2.17;;;1.58;;
4517;SDS011;2271;49.464;11.070;2023-08-31T11:56:40;2.15;;;1.38;;
4517;SDS011;2271;49.464;11.070;2023-08-31T11:59:08;2.40;;;1.40;;
4517;SDS011;2271;49.464;11.070;2023-08-31T12:01:42;2.50;;;1.75;;
4517;SDS011;2271;49.464;11.070;2023-08-31T12:04:26;2.42;;;1.55;;
4517;SDS011;2271;49.464;11.070;2023-08-31T12:06:52;3.40;;;1.88;;
4517;SDS011;2271;49.464;11.070;2023-08-31T12:09:25;5.88;;;1.38;;
4517;SDS011;2271;49.464;11.070;2023-08-31T12:11:53;4.18;;;1.65;;
4517;SDS011;2271;49.464;11.070;2023-08-31T12:14:27;2.45;;;1.48;;
4517;SDS011;2271;49.464;11.070;2023-08-31T12:17:00;2.80;;;1.17;;
4517;SDS011;2271;49.464;11.070;2023-08-31T12:19:28;2.83;;;1.30;;
4517;SDS011;2271;49.464;11.070;2023-08-31T12:21:54;2.85;;;1.15;;
4517;SDS011;2271;49.464;11.070;2023-08-31T12:24:21;2.38;;;1.50;;
4517;SDS011;2271;49.464;11.070;2023-08-31T12:26:48;2.40;;;1.40;;
4517;SDS011;2271;49.464;11.070;2023-08-31T12:29:14;3.53;;;1.50;;
4517;SDS011;2271;49.464;11.070;2023-08-31T12:31:40;2.25;;;1.25;;
4517;SDS011;2271;49.464;11.070;2023-08-31T12:34:06;5.05;;;1.98;;
4517;SDS011;2271;49.464;11.070;2023-08-31T12:36:32;2.80;;;1.20;;
4517;SDS011;2271;49.464;11.070;2023-08-31T12:38:58;1.75;;;1.25;;
4517;SDS011;2271;49.464;11.070;2023-08-31T12:41:26;1.60;;;1.00;;
4517;SDS011;2271;49.464;11.070;2023-08-31T12:43:53;2.53;;;1.20;;
4517;SDS011;2271;49.464;11.070;2023-08-31T12:46:19;1.98;;;1.02;;
4517;SDS011;2271;49.464;11.070;2023-08-31T12:48:44;13.98;;;1.42;;
4517;SDS011;2271;49.464;11.070;2023-08-31T12:51:10;3.50;;;1.52;;
4517;SDS011;2271;49.464;11.070;2023-08-31T12:53:39;1.45;;;1.20;;
4517;SDS011;2271;49.464;11.070;2023-08-31T12:56:05;3.53;;;1.58;;
4517;SDS011;2271;49.464;11.070;2023-08-31T12:58:31;3.28;;;1.10;;
4517;SDS011;2271;49.464;11.070;2023-08-31T13:00:57;3.90;;;1.48;;
4517;SDS011;2271;49.464;11.070;2023-08-31T13:03:24;2.85;;;1.63;;
4517;SDS011;2271;49.464;11.070;2023-08-31T13:05:50;1.42;;;1.27;;
4517;SDS011;2271;49.464;11.070;2023-08-31T13:08:16;1.33;;;1.20;;
4517;SDS011;2271;49.464;11.070;2023-08-31T13:10:42;2.15;;;1.38;;
4517;SDS011;2271;49.464;11.070;2023-08-31T13:13:08;3.63;;;1.38;;
4517;SDS011;2271;49.464;11.070;2023-08-31T13:15:34;5.15;;;1.67;;
4517;SDS011;2271;49.464;11.070;2023-08-31T13:18:00;4.38;;;1.20;;
4517;SDS011;2271;49.464;11.070;2023-08-31T13:20:26;1.92;;;1.20;;
4517;SDS011;2271;49.464;11.070;2023-08-31T13:22:52;2.25;;;1.20;;
4517;SDS011;2271;49.464;11.070;2023-08-31T13:25:18;3.75;;;1.33;;
4517;SDS011;2271;49.464;11.070;2023-08-31T13:27:44;1.63;;;1.13;;
4517;SDS011;2271;49.464;11.070;2023-08-31T13:30:09;3.55;;;1.30;;
4517;SDS011;2271;49.464;11.070;2023-08-31T13:32:37;1.75;;;1.35;;
4517;SDS011;2271;49.464;11.070;2023-08-31T13:35:03;2.03;;;1.30;;
4517;SDS011;2271;49.464;11.070;2023-08-31T13:37:32;3.28;;;1.40;;
4517;SDS011;2271;49.464;11.070;2023-08-31T13:39:59;4.70;;;1.73;;
4517;SDS011;2271;49.464;11.070;2023-08-31T13:42:25;5.40;;;1.58;;
4517;SDS011;2271;49.464;11.070;2023-08-31T13:44:51;1.67;;;1.13;;
4517;SDS011;2271;49.464;11.070;2023-08-31T13:47:16;2.28;;;1.10;;
4517;SDS011;2271;49.464;11.070;2023-08-31T13:49:42;2.53;;;1.35;;
4517;SDS011;2271;49.464;11.070;2023-08-31T13:52:08;2.83;;;1.50;;
4517;SDS011;2271;49.464;11.070;2023-08-31T13:54:35;4.00;;;1.60;;
4517;SDS011;2271;49.464;11.070;2023-08-31T13:57:01;1.23;;;1.13;;
4517;SDS011;2271;49.464;11.070;2023-08-31T13:59:27;1.52;;;0.98;;
4517;SDS011;2271;49.464;11.070;2023-08-31T14:01:53;3.13;;;1.45;;
4517;SDS011;2271;49.464;11.070;2023-08-31T14:04:19;1.88;;;0.90;;
4517;SDS011;2271;49.464;11.070;2023-08-31T14:06:45;2.72;;;1.15;;
4517;SDS011;2271;49.464;11.070;2023-08-31T14:09:11;1.02;;;0.93;;
4517;SDS011;2271;49.464;11.070;2023-08-31T14:11:36;3.70;;;1.25;;
4517;SDS011;2271;49.464;11.070;2023-08-31T14:14:03;4.15;;;1.33;;
4517;SDS011;2271;49.464;11.070;2023-08-31T14:16:36;3.13;;;1.45;;
4517;SDS011;2271;49.464;11.070;2023-08-31T14:19:03;1.75;;;1.23;;
4517;SDS011;2271;49.464;11.070;2023-08-31T14:21:29;1.70;;;1.08;;
4517;SDS011;2271;49.464;11.070;2023-08-31T14:23:55;3.22;;;1.60;;
4517;SDS011;2271;49.464;11.070;2023-08-31T14:26:24;1.42;;;1.17;;
4517;SDS011;2271;49.464;11.070;2023-08-31T14:28:50;2.25;;;1.20;;
4517;SDS011;2271;49.464;11.070;2023-08-31T14:31:16;2.22;;;1.20;;
4517;SDS011;2271;49.464;11.070;2023-08-31T14:33:43;2.72;;;1.40;;
4517;SDS011;2271;49.464;11.070;2023-08-31T14:36:08;3.33;;;1.48;;
4517;SDS011;2271;49.464;11.070;2023-08-31T14:38:34;2.20;;;1.33;;
4517;SDS011;2271;49.464;11.070;2023-08-31T14:41:00;4.72;;;1.48;;
4517;SDS011;2271;49.464;11.070;2023-08-31T14:43:25;2.08;;;1.10;;
4517;SDS011;2271;49.464;11.070;2023-08-31T14:45:51;1.70;;;1.30;;
4517;SDS011;2271;49.464;11.070;2023-08-31T14:48:17;3.38;;;1.55;;
4517;SDS011;2271;49.464;11.070;2023-08-31T14:50:43;3.72;;;2.00;;
4517;SDS011;2271;49.464;11.070;2023-08-31T14:53:09;3.72;;;1.52;;
4517;SDS011;2271;49.464;11.070;2023-08-31T14:55:35;5.40;;;2.05;;
4517;SDS011;2271;49.464;11.070;2023-08-31T14:58:01;2.90;;;1.75;;
4517;SDS011;2271;49.464;11.070;2023-08-31T15:00:27;2.35;;;1.30;;
4517;SDS011;2271;49.464;11.070;2023-08-31T15:02:52;2.90;;;1.20;;
4517;SDS011;2271;49.464;11.070;2023-08-31T15:05:18;4.82;;;1.50;;
4517;SDS011;2271;49.464;11.070;2023-08-31T15:07:43;2.45;;;1.40;;
4517;SDS011;2271;49.464;11.070;2023-08-31T15:10:09;2.92;;;1.20;;
4517;SDS011;2271;49.464;11.070;2023-08-31T15:12:35;2.55;;;1.58;;
4517;SDS011;2271;49.464;11.070;2023-08-31T15:15:01;2.88;;;1.30;;
4517;SDS011;2271;49.464;11.070;2023-08-31T15:17:30;2.38;;;1.52;;
4517;SDS011;2271;49.464;11.070;2023-08-31T15:19:56;3.70;;;1.70;;
4517;SDS011;2271;49.464;11.070;2023-08-31T15:24:52;3.33;;;1.38;;
4517;SDS011;2271;49.464;11.070;2023-08-31T15:27:18;9.55;;;1.38;;
4517;SDS011;2271;49.464;11.070;2023-08-31T15:29:44;2.65;;;1.27;;
4517;SDS011;2271;49.464;11.070;2023-08-31T15:32:10;5.38;;;1.35;;
4517;SDS011;2271;49.464;11.070;2023-08-31T15:34:36;2.15;;;1.30;;
4517;SDS011;2271;49.464;11.070;2023-08-31T15:37:02;11.18;;;1.65;;